Terminal Aerodrome Forecast
Issued by NWS Newport/Morehead City, NC

Home | Current Version | Previous Version | Text Only | Print | Product List | Glossary On
Versions: 1 2 3 4 5 6 7 8 9 10 11 12 13 14 15 16 17
000
FTUS42 KMHX 202300
TAFEWN
TAF
KEWN 202320Z 2100/2124 04009KT P6SM -RA BKN015 OVC030
     FM210600 03009KT 6SM -RA BR BKN010
      TEMPO 2108/2112 BKN007
     FM211500 34009KT P6SM FEW030 SCT060=

USA.gov is the U.S. government's official web portal to all federal, state and local government web resources and services.